createdAt,value
2023-12-27T05:14:59.036Z,17.45
2023-12-27T05:17:26.548Z,18.52
2023-12-27T05:19:54.017Z,15.68
2023-12-27T05:22:22.183Z,18.60
2023-12-27T05:24:49.757Z,18.70
2023-12-27T05:27:17.281Z,15.57
2023-12-27T05:29:44.786Z,20.23
2023-12-27T05:32:13.798Z,18.00
2023-12-27T05:34:41.347Z,18.27
2023-12-27T05:37:09.965Z,17.10
2023-12-27T05:39:37.744Z,11.35
2023-12-27T05:42:05.436Z,15.02
2023-12-27T05:44:33.084Z,13.13
2023-12-27T05:47:01.849Z,19.23
2023-12-27T05:49:30.771Z,15.10
2023-12-27T05:51:58.332Z,19.40
2023-12-27T05:54:27.492Z,10.35
2023-12-27T05:56:55.157Z,16.65
2023-12-27T05:59:22.702Z,12.77
2023-12-27T06:01:53.915Z,13.85
2023-12-27T06:04:21.578Z,10.23
2023-12-27T06:06:50.849Z,12.82
2023-12-27T06:09:18.427Z,10.80
2023-12-27T06:11:46.094Z,12.70
2023-12-27T06:14:13.863Z,16.60
2023-12-27T06:16:41.325Z,12.93
2023-12-27T06:19:08.975Z,14.90
2023-12-27T06:21:36.524Z,14.30
2023-12-27T06:24:05.671Z,9.95
2023-12-27T06:26:33.189Z,10.55
2023-12-27T06:29:00.683Z,17.80
2023-12-27T06:31:30.243Z,16.98
2023-12-27T06:36:25.398Z,19.63
2023-12-27T06:38:52.907Z,17.92
2023-12-27T06:41:21.800Z,16.48
2023-12-27T06:43:49.340Z,17.98
2023-12-27T06:46:16.846Z,16.98
2023-12-27T06:48:44.458Z,17.10
2023-12-27T06:51:12.530Z,18.20
2023-12-27T06:53:40.225Z,14.85
2023-12-27T06:56:07.862Z,13.00
2023-12-27T06:58:36.678Z,14.90
2023-12-27T07:01:04.407Z,18.27
2023-12-27T07:03:32.163Z,11.82
2023-12-27T07:05:59.827Z,14.25
2023-12-27T07:08:27.439Z,11.05
2023-12-27T07:10:54.922Z,13.27
2023-12-27T07:13:22.421Z,12.60
2023-12-27T07:15:51.332Z,10.48
2023-12-27T07:18:18.974Z,11.18
2023-12-27T07:20:46.855Z,9.45
2023-12-27T07:23:14.448Z,9.68
2023-12-27T07:25:41.944Z,9.20
2023-12-27T07:28:09.416Z,8.45
2023-12-27T07:30:36.996Z,12.43
2023-12-27T07:33:06.256Z,15.73
2023-12-27T07:35:34.002Z,13.40
2023-12-27T07:38:01.682Z,14.23
2023-12-27T07:40:29.641Z,13.95
2023-12-27T07:42:57.134Z,11.48
2023-12-27T07:45:24.644Z,10.68
2023-12-27T07:47:52.257Z,15.23
2023-12-27T07:50:21.904Z,15.15
2023-12-27T07:55:16.810Z,11.65
2023-12-27T07:57:46.486Z,12.10
2023-12-27T08:02:43.885Z,18.60
2023-12-27T08:05:11.550Z,19.60
2023-12-27T08:07:40.430Z,16.60
2023-12-27T08:10:08.587Z,13.40
2023-12-27T08:12:36.216Z,15.57
2023-12-27T08:15:03.983Z,14.60
2023-12-27T08:17:31.594Z,14.15
2023-12-27T08:19:59.121Z,13.90
2023-12-27T08:22:26.632Z,19.38
2023-12-27T08:24:55.446Z,18.17
2023-12-27T08:27:22.992Z,21.60
2023-12-27T08:29:50.520Z,14.57
2023-12-27T08:32:18.033Z,25.08
2023-12-27T08:34:45.695Z,19.70
2023-12-27T08:37:13.353Z,14.73
2023-12-27T08:39:40.871Z,21.73
2023-12-27T08:42:10.628Z,25.88
2023-12-27T08:44:38.257Z,19.20
2023-12-27T08:47:06.232Z,17.30
2023-12-27T08:49:33.837Z,19.00
2023-12-27T08:52:01.415Z,23.42
2023-12-27T08:54:28.952Z,24.25
2023-12-27T08:56:56.854Z,16.75
2023-12-27T08:59:26.065Z,18.63
2023-12-27T09:01:53.575Z,23.98
2023-12-27T09:04:24.727Z,20.83
2023-12-27T09:06:54.692Z,21.63
2023-12-27T09:11:50.021Z,19.58
2023-12-27T09:14:17.534Z,23.75
2023-12-27T09:16:46.495Z,22.58
2023-12-27T09:19:14.226Z,21.02
2023-12-27T09:21:45.584Z,23.27
2023-12-27T09:24:13.449Z,26.80
2023-12-27T09:26:41.211Z,20.92
2023-12-27T09:29:10.456Z,20.77
2023-12-27T09:31:38.406Z,26.55
2023-12-27T09:34:07.591Z,20.33
2023-12-27T09:36:35.211Z,20.67
2023-12-27T09:39:02.772Z,21.17
2023-12-27T09:41:30.336Z,15.13
2023-12-27T09:43:58.555Z,18.77
2023-12-27T09:46:26.532Z,17.55
2023-12-27T09:48:55.177Z,23.05
2023-12-27T09:51:25.166Z,20.10
2023-12-27T09:53:53.046Z,20.00
2023-12-27T09:56:21.035Z,17.85
2023-12-27T09:58:50.806Z,21.88
2023-12-27T10:01:18.390Z,17.13
2023-12-27T10:03:49.916Z,19.10
2023-12-27T10:06:20.857Z,18.95
2023-12-27T10:08:49.889Z,22.55
2023-12-27T10:11:18.394Z,19.33
2023-12-27T10:13:47.947Z,20.10
2023-12-27T10:16:15.662Z,25.77
2023-12-27T10:18:45.939Z,21.08
2023-12-27T10:21:15.708Z,19.27
2023-12-27T10:23:43.469Z,22.27
2023-12-27T10:26:12.403Z,24.58
2023-12-27T10:28:39.942Z,22.60
2023-12-27T10:31:07.601Z,25.65
2023-12-27T10:33:41.891Z,22.83
2023-12-27T10:36:09.919Z,25.85
2023-12-27T10:38:37.526Z,26.70
2023-12-27T10:41:06.205Z,24.52
2023-12-27T10:43:35.268Z,23.10
2023-12-27T10:46:08.691Z,29.25
2023-12-27T10:48:36.341Z,24.15
2023-12-27T10:51:04.077Z,22.48
2023-12-27T10:53:31.828Z,32.22
2023-12-27T10:56:00.422Z,27.13
2023-12-27T10:58:28.773Z,32.58
2023-12-27T11:00:58.612Z,26.80
2023-12-27T11:03:28.200Z,25.20
2023-12-27T11:05:57.102Z,25.92
2023-12-27T11:08:25.236Z,26.95
2023-12-27T11:10:53.534Z,27.08
2023-12-27T11:13:22.401Z,22.88
2023-12-27T11:15:54.454Z,23.92
2023-12-27T11:18:24.206Z,28.02
2023-12-27T11:20:52.689Z,35.25
2023-12-27T11:23:20.264Z,26.40
2023-12-27T11:25:47.790Z,32.20
2023-12-27T11:28:15.518Z,29.38
2023-12-27T11:30:44.500Z,25.80
2023-12-27T11:33:12.389Z,28.58
2023-12-27T11:35:41.393Z,35.15
2023-12-27T11:38:15.922Z,27.63
2023-12-27T11:40:44.408Z,31.00
2023-12-27T11:43:12.180Z,35.05
2023-12-27T11:45:59.276Z,31.40
2023-12-27T11:48:29.020Z,28.63
2023-12-27T11:50:58.945Z,34.40
2023-12-27T11:53:27.654Z,31.35
2023-12-27T11:55:55.302Z,33.30
2023-12-27T11:58:32.791Z,34.97
2023-12-27T12:01:15.225Z,30.60
2023-12-27T12:03:42.835Z,37.40
2023-12-27T12:06:18.251Z,34.90
2023-12-27T12:08:46.597Z,31.05
2023-12-27T12:11:15.210Z,35.00
2023-12-27T12:13:43.330Z,36.22
2023-12-27T12:16:11.192Z,31.65
2023-12-27T12:18:40.842Z,43.58
2023-12-27T12:21:08.509Z,48.72
2023-12-27T12:23:37.483Z,41.67
2023-12-27T12:26:05.528Z,46.55
2023-12-27T12:28:33.106Z,41.90
2023-12-27T12:31:01.184Z,37.90
2023-12-27T12:33:29.043Z,40.50
2023-12-27T12:35:57.165Z,47.67
2023-12-27T12:38:24.877Z,43.28
2023-12-27T12:40:54.342Z,48.20
2023-12-27T12:43:21.978Z,42.33
2023-12-27T12:45:49.602Z,44.60
2023-12-27T12:48:18.261Z,43.88
2023-12-27T12:50:46.007Z,35.45
2023-12-27T12:53:17.442Z,53.70
2023-12-27T12:55:45.646Z,39.45
2023-12-27T12:58:15.017Z,40.33
2023-12-27T13:00:42.645Z,45.30
2023-12-27T13:03:10.439Z,39.47
2023-12-27T13:05:42.262Z,40.92
2023-12-27T13:08:09.974Z,35.83
2023-12-27T13:10:38.588Z,44.92
2023-12-27T13:13:06.119Z,39.08
2023-12-27T13:15:35.004Z,35.65
2023-12-27T13:18:02.902Z,38.70
2023-12-27T13:20:30.593Z,33.58
2023-12-27T13:22:58.166Z,30.00
2023-12-27T13:25:25.694Z,35.70
2023-12-27T13:27:58.670Z,28.60
2023-12-27T13:30:34.959Z,36.22
2023-12-27T13:33:04.769Z,32.10
2023-12-27T13:35:32.951Z,28.65
2023-12-27T13:38:00.715Z,31.08
2023-12-27T13:40:28.921Z,30.17
2023-12-27T13:42:57.466Z,28.60
2023-12-27T13:45:25.267Z,26.67
2023-12-27T13:47:54.366Z,26.73
2023-12-27T13:50:22.024Z,27.05
2023-12-27T13:52:49.572Z,27.88
2023-12-27T13:55:22.258Z,28.27
2023-12-27T13:57:50.519Z,22.40
2023-12-27T14:00:18.607Z,30.95
2023-12-27T14:02:47.505Z,28.77
2023-12-27T14:05:16.448Z,24.65
2023-12-27T14:07:44.041Z,21.67
2023-12-27T14:10:13.378Z,19.52
2023-12-27T14:12:43.801Z,22.65
2023-12-27T14:15:12.113Z,21.60
2023-12-27T14:17:40.719Z,22.60
2023-12-27T14:20:09.344Z,22.48
2023-12-27T14:22:38.240Z,20.58
2023-12-27T14:25:06.587Z,21.85
2023-12-27T14:27:34.090Z,22.75
2023-12-27T14:30:01.625Z,20.48
2023-12-27T14:32:29.146Z,21.02
2023-12-27T14:34:56.669Z,19.08
2023-12-27T14:37:24.231Z,21.15
2023-12-27T14:39:53.132Z,19.00
2023-12-27T14:42:20.806Z,19.40
2023-12-27T14:44:48.616Z,15.32
2023-12-27T14:47:16.096Z,16.02
2023-12-27T14:49:43.678Z,19.23
2023-12-27T14:52:11.221Z,18.33
2023-12-27T14:54:39.335Z,17.67
2023-12-27T14:57:08.254Z,20.35
2023-12-27T14:59:35.990Z,16.40
2023-12-27T15:02:04.432Z,17.65
2023-12-27T15:04:34.459Z,19.17
2023-12-27T15:07:02.810Z,15.63
2023-12-27T15:09:30.521Z,18.42
2023-12-27T15:11:58.122Z,17.88
2023-12-27T15:14:27.013Z,13.93
2023-12-27T15:16:55.471Z,12.52
2023-12-27T15:19:23.110Z,13.10
2023-12-27T15:21:50.964Z,16.92
2023-12-27T15:24:18.537Z,14.38
2023-12-27T15:26:46.067Z,19.20
2023-12-27T15:29:13.557Z,18.95
2023-12-27T15:31:42.500Z,18.00
2023-12-27T15:34:12.171Z,13.82
2023-12-27T15:36:40.366Z,16.95
2023-12-27T15:39:07.935Z,16.45
2023-12-27T15:41:36.750Z,17.95
2023-12-27T15:44:05.145Z,19.30
2023-12-27T15:46:32.886Z,16.23
2023-12-27T15:49:03.361Z,15.13
2023-12-27T15:51:35.333Z,16.40
2023-12-27T15:54:04.945Z,15.50
2023-12-27T15:56:33.402Z,15.35
2023-12-27T15:59:03.327Z,11.93
2023-12-27T16:01:31.895Z,13.63
2023-12-27T16:04:00.597Z,13.23
2023-12-27T16:06:31.311Z,16.43
2023-12-27T16:08:59.671Z,14.63
2023-12-27T16:11:27.577Z,15.10
2023-12-27T16:13:55.753Z,15.20
2023-12-27T16:16:23.345Z,15.18
2023-12-27T16:18:51.354Z,13.25
2023-12-27T16:21:20.192Z,13.88
2023-12-27T16:23:49.117Z,11.93
2023-12-27T16:26:18.804Z,18.75
2023-12-27T16:28:47.969Z,13.35
2023-12-27T16:31:15.979Z,14.23
2023-12-27T16:33:43.836Z,14.85
2023-12-27T16:36:12.189Z,17.13
2023-12-27T16:38:40.946Z,14.52
2023-12-27T16:41:10.945Z,13.70
2023-12-27T16:46:09.145Z,13.40
2023-12-27T16:48:36.736Z,11.60
2023-12-27T16:51:04.441Z,12.20
2023-12-27T16:53:31.935Z,13.68
2023-12-27T16:55:59.422Z,17.08
2023-12-27T16:58:28.284Z,14.70
2023-12-27T17:00:55.847Z,12.30
2023-12-27T17:03:23.530Z,13.23
2023-12-27T17:05:51.457Z,10.93
2023-12-27T17:08:19.017Z,14.73
2023-12-27T17:10:46.525Z,12.50
2023-12-27T17:13:16.040Z,14.75
2023-12-27T17:15:44.981Z,12.55
2023-12-27T17:18:12.757Z,11.13
2023-12-27T17:20:40.386Z,11.90
2023-12-27T17:23:07.879Z,9.68
2023-12-27T17:25:40.290Z,9.43
2023-12-27T17:28:07.829Z,7.47
2023-12-27T17:30:35.621Z,12.07
2023-12-27T17:33:05.061Z,10.40
2023-12-27T17:38:00.105Z,11.10
2023-12-27T17:40:27.781Z,11.95
2023-12-27T17:42:57.624Z,11.50
2023-12-27T17:45:25.430Z,8.43
2023-12-27T17:47:53.125Z,10.25
2023-12-27T17:50:22.107Z,10.52
2023-12-27T17:52:49.567Z,9.55
2023-12-27T17:55:17.093Z,9.77
2023-12-27T17:57:44.762Z,11.75
2023-12-27T18:00:13.382Z,9.70
2023-12-27T18:02:40.984Z,10.60
2023-12-27T18:05:08.843Z,9.70
2023-12-27T18:07:37.697Z,9.50
2023-12-27T18:10:06.321Z,9.32
2023-12-27T18:12:33.996Z,6.93
2023-12-27T18:15:01.355Z,9.88
2023-12-27T18:17:29.592Z,7.03
2023-12-27T18:19:57.359Z,6.85
2023-12-27T18:22:25.005Z,7.57
2023-12-27T18:24:53.913Z,7.22
2023-12-27T18:27:21.461Z,7.68
2023-12-27T18:29:48.979Z,5.93
2023-12-27T18:32:16.499Z,8.20
2023-12-27T18:34:44.177Z,6.55
2023-12-27T18:37:12.398Z,7.55
2023-12-27T18:39:41.473Z,8.35
2023-12-27T18:42:10.947Z,6.57
2023-12-27T18:44:41.852Z,7.40
2023-12-27T18:47:09.435Z,4.93
2023-12-27T18:49:37.105Z,6.00
2023-12-27T18:52:05.015Z,7.55
2023-12-27T18:54:33.670Z,8.48
2023-12-27T18:57:01.196Z,6.43
2023-12-27T18:59:30.129Z,8.15
2023-12-27T19:01:58.865Z,7.05
2023-12-27T19:04:26.463Z,5.97
2023-12-27T19:06:54.137Z,5.97
2023-12-27T19:09:21.677Z,6.70
2023-12-27T19:11:49.218Z,6.97
2023-12-27T19:14:16.776Z,8.63
2023-12-27T19:16:45.713Z,6.75
2023-12-27T19:19:18.932Z,5.75
2023-12-27T19:21:51.183Z,11.30
2023-12-27T19:24:19.166Z,4.00
2023-12-27T19:26:46.888Z,6.20
2023-12-27T19:29:13.398Z,4.72
2023-12-27T19:31:41.523Z,4.30
2023-12-27T19:34:10.540Z,7.57
2023-12-27T19:36:38.272Z,9.25
2023-12-27T19:39:06.456Z,4.95
2023-12-27T19:41:34.029Z,3.17
2023-12-27T19:44:03.643Z,4.18
2023-12-27T19:49:00.066Z,4.67
2023-12-27T19:51:29.506Z,4.80
2023-12-27T19:53:57.072Z,6.50
2023-12-27T19:56:24.667Z,6.60
2023-12-27T19:58:52.307Z,5.70
2023-12-27T20:01:20.067Z,7.03
2023-12-27T20:03:47.639Z,3.50
2023-12-27T20:06:16.432Z,4.25
2023-12-27T20:08:45.391Z,5.17
2023-12-27T20:11:13.054Z,3.42
2023-12-27T20:13:40.566Z,4.22
2023-12-27T20:16:08.375Z,4.43
2023-12-27T20:18:36.145Z,5.80
2023-12-27T20:21:05.132Z,4.85
2023-12-27T20:23:33.223Z,5.63
2023-12-27T20:26:02.081Z,5.75
2023-12-27T20:28:29.760Z,6.32
2023-12-27T20:30:57.466Z,6.30
2023-12-27T20:33:25.253Z,6.28
2023-12-27T20:35:52.806Z,8.02
2023-12-27T20:38:22.104Z,10.18
2023-12-27T20:40:49.631Z,6.85
2023-12-27T20:43:18.520Z,8.63
2023-12-27T20:45:46.866Z,3.53
2023-12-27T20:48:14.809Z,8.43
2023-12-27T20:50:42.664Z,7.90
2023-12-27T20:53:10.196Z,6.45
2023-12-27T20:55:37.656Z,7.45
2023-12-27T20:58:05.409Z,6.90
2023-12-27T21:00:34.406Z,8.75
2023-12-27T21:03:02.043Z,4.25
2023-12-27T21:05:30.152Z,9.27
2023-12-27T21:07:57.928Z,9.40
2023-12-27T21:10:25.979Z,8.15
2023-12-27T21:12:53.524Z,10.02
2023-12-27T21:15:21.069Z,8.50
2023-12-27T21:17:50.048Z,8.00
2023-12-27T21:20:17.630Z,8.77
2023-12-27T21:22:45.219Z,11.30
2023-12-27T21:25:12.803Z,6.82
2023-12-27T21:27:40.336Z,8.90
2023-12-27T21:30:08.786Z,10.68
2023-12-27T21:32:36.451Z,8.27
2023-12-27T21:35:05.738Z,9.60
2023-12-27T21:37:33.266Z,10.48
2023-12-27T21:40:00.905Z,9.15
2023-12-27T21:42:28.507Z,7.65
2023-12-27T21:44:56.118Z,9.50
2023-12-27T21:47:23.653Z,10.57
2023-12-27T21:49:51.377Z,12.25
2023-12-27T21:52:20.296Z,15.52
2023-12-27T21:54:47.925Z,10.88
2023-12-27T21:57:15.552Z,10.32
2023-12-27T21:59:43.088Z,7.90
2023-12-27T22:02:11.614Z,10.48
2023-12-27T22:04:39.116Z,13.50
2023-12-27T22:07:09.804Z,9.50
2023-12-27T22:09:39.721Z,15.50
2023-12-27T22:12:07.436Z,14.43
2023-12-27T22:14:34.937Z,15.77
2023-12-27T22:17:02.441Z,10.32
2023-12-27T22:19:30.074Z,14.55
2023-12-27T22:21:57.719Z,15.05
2023-12-27T22:24:26.416Z,20.40
2023-12-27T22:26:55.348Z,16.88
2023-12-27T22:29:22.819Z,12.80
2023-12-27T22:31:50.414Z,15.05
2023-12-27T22:34:18.041Z,15.20
2023-12-27T22:36:45.715Z,19.95
2023-12-27T22:39:13.375Z,18.65
2023-12-27T22:41:40.890Z,17.65
2023-12-27T22:44:09.823Z,18.08
2023-12-27T22:46:37.435Z,16.98
2023-12-27T22:49:05.038Z,18.13
2023-12-27T22:51:32.570Z,20.40
2023-12-27T22:54:00.237Z,19.15
2023-12-27T22:56:27.758Z,18.13
2023-12-27T22:58:55.255Z,22.58
2023-12-27T23:01:24.154Z,19.23
2023-12-27T23:03:51.706Z,17.73
2023-12-27T23:06:19.327Z,17.20
2023-12-27T23:08:46.910Z,18.98
2023-12-27T23:11:14.410Z,23.00
2023-12-27T23:13:42.023Z,18.52
2023-12-27T23:16:09.562Z,18.10
2023-12-27T23:18:38.644Z,16.92
2023-12-27T23:21:06.452Z,19.23
2023-12-27T23:23:33.956Z,25.05
2023-12-27T23:26:01.423Z,22.58
2023-12-27T23:28:29.880Z,26.08
2023-12-27T23:30:57.577Z,26.90
2023-12-27T23:33:26.371Z,26.67
2023-12-27T23:35:55.468Z,25.85
2023-12-27T23:38:23.014Z,29.52
2023-12-27T23:40:50.521Z,23.05
2023-12-27T23:43:18.016Z,23.67
2023-12-27T23:45:45.761Z,32.50
2023-12-27T23:48:13.549Z,24.55
2023-12-27T23:50:41.175Z,24.98
2023-12-27T23:53:10.055Z,24.60
2023-12-27T23:55:37.546Z,28.90
2023-12-27T23:58:05.856Z,35.20
